createdAt,value
2023-02-07T00:02:27.647Z,99818.97
2023-02-07T00:05:02.291Z,99820.72
2023-02-07T00:07:35.330Z,99832.28
2023-02-07T00:10:10.306Z,99823.94
2023-02-07T00:12:43.521Z,99816.50
2023-02-07T00:15:16.658Z,99818.31
2023-02-07T00:17:49.733Z,99821.22
2023-02-07T00:20:25.180Z,99819.22
2023-02-07T00:22:58.245Z,99800.53
2023-02-07T00:25:31.314Z,99802.25
2023-02-07T00:28:04.750Z,99813.19
2023-02-07T00:30:37.952Z,99811.19
2023-02-07T00:33:11.062Z,99807.06
2023-02-07T00:35:45.578Z,99813.28
2023-02-07T00:38:18.558Z,99821.94
2023-02-07T00:40:51.578Z,99823.00
2023-02-07T00:43:29.824Z,99817.75
2023-02-07T00:46:05.502Z,99816.59
2023-02-07T00:48:40.225Z,99816.06
2023-02-07T00:51:15.741Z,99816.69
2023-02-07T00:53:49.015Z,99829.63
2023-02-07T00:56:22.896Z,99835.13
2023-02-07T00:58:56.010Z,99835.56
2023-02-07T01:01:29.241Z,99829.25
2023-02-07T01:04:02.706Z,99833.44
2023-02-07T01:06:37.162Z,99815.28
2023-02-07T01:09:11.375Z,99813.50
2023-02-07T01:11:44.429Z,99806.56
2023-02-07T01:14:17.527Z,99804.13
2023-02-07T01:16:50.637Z,99808.31
2023-02-07T01:19:23.753Z,99807.97
2023-02-07T01:21:59.834Z,99818.00
2023-02-07T01:24:35.212Z,99814.94
2023-02-07T01:27:08.449Z,99809.50
2023-02-07T01:29:41.685Z,99815.47
2023-02-07T01:32:14.717Z,99827.19
2023-02-07T01:34:47.817Z,99829.88
2023-02-07T01:37:22.294Z,99842.88
2023-02-07T01:39:55.906Z,99837.94
2023-02-07T01:42:30.102Z,99865.69
2023-02-07T01:45:14.295Z,99863.59
2023-02-07T01:47:47.626Z,99870.38
2023-02-07T01:50:21.462Z,99859.09
2023-02-07T01:52:56.712Z,99853.19
2023-02-07T01:55:35.295Z,99848.78
2023-02-07T01:58:09.337Z,99850.25
2023-02-07T02:00:42.598Z,99848.38
2023-02-07T02:03:16.188Z,99847.06
2023-02-07T02:05:54.308Z,99859.31
2023-02-07T02:08:29.083Z,99854.09
2023-02-07T02:11:23.476Z,99853.53
2023-02-07T02:14:06.155Z,99843.66
2023-02-07T02:16:44.371Z,99838.91
2023-02-07T02:19:51.348Z,99827.78
2023-02-07T02:23:00.355Z,99840.00
2023-02-07T02:26:31.179Z,99826.84
2023-02-07T02:30:00.639Z,99826.53
2023-02-07T02:33:26.774Z,99820.09
2023-02-07T02:36:11.976Z,99818.09
2023-02-07T02:38:52.025Z,99817.47
2023-02-07T02:41:30.890Z,99814.50
2023-02-07T02:44:10.002Z,99823.94
2023-02-07T02:46:44.032Z,99820.50
2023-02-07T02:49:19.678Z,99813.41
2023-02-07T02:51:53.427Z,99813.72
2023-02-07T02:54:30.039Z,99824.78
2023-02-07T02:57:33.469Z,99831.50
2023-02-07T03:00:31.289Z,99831.38
2023-02-07T03:03:19.410Z,99844.44
2023-02-07T03:06:08.267Z,99841.69
2023-02-07T03:08:47.509Z,99835.13
2023-02-07T03:11:23.608Z,99828.28
2023-02-07T03:14:04.598Z,99828.69
2023-02-07T03:16:55.673Z,99816.03
2023-02-07T03:19:34.676Z,99822.00
2023-02-07T03:22:13.802Z,99821.47
2023-02-07T03:24:52.628Z,99826.47
2023-02-07T03:27:29.200Z,99827.03
2023-02-07T03:30:07.802Z,99836.94
2023-02-07T03:32:45.375Z,99834.34
2023-02-07T03:35:25.307Z,99841.66
2023-02-07T03:38:02.458Z,99837.09
2023-02-07T03:40:42.260Z,99836.75
2023-02-07T03:43:19.666Z,99838.13
2023-02-07T03:45:52.868Z,99837.84
2023-02-07T03:48:26.525Z,99836.06
2023-02-07T03:50:59.667Z,99830.41
2023-02-07T03:53:34.170Z,99833.16
2023-02-07T03:56:08.186Z,99827.69
2023-02-07T03:58:41.200Z,99822.91
2023-02-07T04:01:14.252Z,99821.97
2023-02-07T04:03:47.324Z,99813.72
2023-02-07T04:06:20.708Z,99805.00
2023-02-07T04:08:55.104Z,99794.75
2023-02-07T04:11:28.165Z,99776.69
2023-02-07T04:14:01.321Z,99769.84
2023-02-07T04:16:34.430Z,99783.78
2023-02-07T04:19:07.538Z,99784.75
2023-02-07T04:21:40.763Z,99798.22
2023-02-07T04:24:15.556Z,99800.41
2023-02-07T04:26:48.636Z,99796.38
2023-02-07T04:29:21.947Z,99805.44
2023-02-07T04:31:55.957Z,99805.06
2023-02-07T04:34:30.583Z,99808.59
2023-02-07T04:37:03.800Z,99806.03
2023-02-07T04:39:38.142Z,99812.66
2023-02-07T04:42:11.269Z,99800.78
2023-02-07T04:44:44.312Z,99802.69
2023-02-07T04:47:17.331Z,99802.03
2023-02-07T04:49:50.493Z,99799.34
2023-02-07T04:52:23.694Z,99800.91
2023-02-07T04:54:58.171Z,99804.38
2023-02-07T04:57:31.278Z,99804.50
2023-02-07T05:00:05.649Z,99799.31
2023-02-07T05:02:39.006Z,99798.66
2023-02-07T05:05:12.253Z,99797.31
2023-02-07T05:07:45.733Z,99794.47
2023-02-07T05:10:20.348Z,99810.13
2023-02-07T05:12:54.480Z,99807.56
2023-02-07T05:15:27.552Z,99811.75
2023-02-07T05:18:01.228Z,99807.66
2023-02-07T05:20:34.291Z,99795.72
2023-02-07T05:23:07.316Z,99801.25
2023-02-07T05:25:43.107Z,99809.56
2023-02-07T05:28:16.693Z,99825.16
2023-02-07T05:30:50.055Z,99824.50
2023-02-07T05:33:22.221Z,99826.91
2023-02-07T05:35:55.333Z,99823.84
2023-02-07T05:38:28.535Z,99818.38
2023-02-07T05:41:02.949Z,99824.09
2023-02-07T05:43:35.971Z,99814.22
2023-02-07T05:46:09.144Z,99827.97
2023-02-07T05:48:42.490Z,99834.84
2023-02-07T05:51:15.516Z,99824.91
2023-02-07T05:53:48.566Z,99822.66
2023-02-07T05:56:23.268Z,99823.59
2023-02-07T05:58:56.277Z,99826.09
2023-02-07T06:01:29.333Z,99819.25
2023-02-07T06:04:02.419Z,99818.31
2023-02-07T06:06:35.517Z,99812.50
2023-02-07T06:09:08.648Z,99809.38
2023-02-07T06:11:43.200Z,99805.78
2023-02-07T06:14:17.499Z,99805.78
2023-02-07T06:16:50.525Z,99807.81
2023-02-07T06:19:23.599Z,99804.88
2023-02-07T06:22:00.514Z,99811.69
2023-02-07T06:24:33.607Z,99814.66
2023-02-07T06:27:08.295Z,99821.50
2023-02-07T06:29:41.434Z,99825.75
2023-02-07T06:32:14.459Z,99824.84
2023-02-07T06:34:47.532Z,99836.66
2023-02-07T06:37:20.697Z,99829.44
2023-02-07T06:39:53.744Z,99836.06
2023-02-07T06:42:28.101Z,99839.22
2023-02-07T06:45:01.135Z,99841.06
2023-02-07T06:47:34.211Z,99845.78
2023-02-07T06:50:09.221Z,99838.50
2023-02-07T06:52:42.305Z,99835.72
2023-02-07T06:55:15.594Z,99838.41
2023-02-07T06:57:50.048Z,99837.56
2023-02-07T07:00:23.379Z,99844.84
2023-02-07T07:02:56.567Z,99846.22
2023-02-07T07:05:30.278Z,99843.69
2023-02-07T07:08:03.727Z,99847.09
2023-02-07T07:10:36.939Z,99852.75
2023-02-07T07:13:11.475Z,99863.50
2023-02-07T07:15:44.678Z,99864.84
2023-02-07T07:18:17.803Z,99861.84
2023-02-07T07:20:54.300Z,99860.50
2023-02-07T07:23:27.520Z,99858.31
2023-02-07T07:26:00.585Z,99858.22
2023-02-07T07:28:35.057Z,99843.78
2023-02-07T07:31:09.777Z,99847.94
2023-02-07T07:33:43.043Z,99842.81
2023-02-07T07:36:16.269Z,99846.00
2023-02-07T07:38:50.161Z,99846.13
2023-02-07T07:41:23.721Z,99841.22
2023-02-07T07:43:58.167Z,99839.03
2023-02-07T07:46:31.320Z,99847.09
2023-02-07T07:49:04.377Z,99839.75
2023-02-07T07:51:37.775Z,99843.22
2023-02-07T07:54:10.827Z,99840.66
2023-02-07T07:56:43.936Z,99840.47
2023-02-07T07:59:24.006Z,99827.75
2023-02-07T08:01:57.467Z,99844.69
2023-02-07T08:04:30.537Z,99845.75
2023-02-07T08:07:03.695Z,99855.22
2023-02-07T08:09:36.810Z,99860.59
2023-02-07T08:12:09.848Z,99860.41
2023-02-07T08:14:44.270Z,99853.59
2023-02-07T08:17:17.340Z,99863.94
2023-02-07T08:19:50.357Z,99863.91
2023-02-07T08:22:23.394Z,99874.94
2023-02-07T08:24:56.549Z,99875.78
2023-02-07T08:27:29.651Z,99879.63
2023-02-07T08:30:04.799Z,99890.06
2023-02-07T08:32:39.614Z,99891.47
2023-02-07T08:35:12.890Z,99893.72
2023-02-07T08:37:45.966Z,99900.94
2023-02-07T08:40:19.646Z,99904.06
2023-02-07T08:42:52.848Z,99901.78
2023-02-07T08:45:27.501Z,99902.84
2023-02-07T08:48:00.670Z,99897.00
2023-02-07T08:50:33.728Z,99902.63
2023-02-07T08:53:06.920Z,99902.13
2023-02-07T08:55:42.178Z,99899.72
2023-02-07T08:58:15.756Z,99891.28
2023-02-07T09:00:50.334Z,99890.03
2023-02-07T09:03:23.582Z,99885.16
2023-02-07T09:06:00.004Z,99892.69
2023-02-07T09:08:33.495Z,99888.34
2023-02-07T09:11:09.897Z,99884.84
2023-02-07T09:13:45.337Z,99891.31
2023-02-07T09:16:19.820Z,99889.44
2023-02-07T09:18:53.400Z,99894.09
2023-02-07T09:21:26.526Z,99891.81
2023-02-07T09:23:59.536Z,99889.59
2023-02-07T09:26:34.391Z,99884.44
2023-02-07T09:29:10.174Z,99885.75
2023-02-07T09:31:46.304Z,99896.22
2023-02-07T09:34:19.667Z,99906.94
2023-02-07T09:36:53.052Z,99900.97
2023-02-07T09:39:26.915Z,99895.56
2023-02-07T09:42:12.636Z,99888.53
2023-02-07T09:44:56.972Z,99891.59
2023-02-07T09:47:33.595Z,99891.56
2023-02-07T09:50:13.617Z,99892.19
2023-02-07T09:52:51.219Z,99895.03
2023-02-07T09:55:27.221Z,99892.13
2023-02-07T09:58:09.013Z,99897.06
2023-02-07T10:00:43.693Z,99893.44
2023-02-07T10:03:21.644Z,99891.81
2023-02-07T10:06:09.315Z,99890.75
2023-02-07T10:08:55.778Z,99888.31
2023-02-07T10:11:43.983Z,99906.78
2023-02-07T10:14:38.859Z,99899.53
2023-02-07T10:17:34.773Z,99892.81
2023-02-07T10:20:29.644Z,99899.81
2023-02-07T10:23:23.215Z,99896.69
2023-02-07T10:26:09.853Z,99899.91
2023-02-07T10:29:07.842Z,99893.34
2023-02-07T10:31:48.562Z,99888.44
2023-02-07T10:34:25.470Z,99891.28
2023-02-07T10:36:59.957Z,99892.78
2023-02-07T10:39:38.486Z,99892.84
2023-02-07T10:42:16.548Z,99893.94
2023-02-07T10:44:49.553Z,99898.44
2023-02-07T10:47:23.337Z,99887.59
2023-02-07T10:49:58.418Z,99882.59
2023-02-07T10:52:38.012Z,99884.72
2023-02-07T10:55:15.254Z,99888.75
2023-02-07T10:58:02.805Z,99896.38
2023-02-07T11:00:40.877Z,99900.38
2023-02-07T11:03:16.040Z,99901.91
2023-02-07T11:05:59.360Z,99890.69
2023-02-07T11:08:36.033Z,99905.13
2023-02-07T11:11:32.582Z,99909.47
2023-02-07T11:14:07.903Z,99901.69
2023-02-07T11:16:45.692Z,99898.31
2023-02-07T11:19:24.476Z,99902.47
2023-02-07T11:22:11.409Z,99904.69
2023-02-07T11:24:47.458Z,99909.75
2023-02-07T11:27:22.752Z,99895.34
2023-02-07T11:29:59.005Z,99903.38
2023-02-07T11:32:32.409Z,99897.66
2023-02-07T11:35:09.536Z,99898.19
2023-02-07T11:37:51.040Z,99903.63
2023-02-07T11:40:30.140Z,99893.59
2023-02-07T11:43:12.166Z,99890.88
2023-02-07T11:45:48.510Z,99894.91
2023-02-07T11:48:27.242Z,99886.91
2023-02-07T11:51:04.302Z,99879.13
2023-02-07T11:53:41.654Z,99894.31
2023-02-07T11:56:26.716Z,99883.56
2023-02-07T11:59:00.810Z,99875.19
2023-02-07T12:01:35.791Z,99872.16
2023-02-07T12:04:13.294Z,99883.69
2023-02-07T12:06:53.675Z,99879.72
2023-02-07T12:09:35.486Z,99882.09
2023-02-07T12:12:19.280Z,99867.63
2023-02-07T12:14:56.653Z,99878.69
2023-02-07T12:17:41.015Z,99867.28
2023-02-07T12:20:23.571Z,99860.63
2023-02-07T12:23:21.749Z,99868.38
2023-02-07T12:26:03.038Z,99865.34
2023-02-07T12:28:45.086Z,99859.38
2023-02-07T12:31:26.140Z,99846.34
2023-02-07T12:34:05.389Z,99851.41
2023-02-07T12:36:44.763Z,99856.28
2023-02-07T12:39:26.737Z,99843.66
2023-02-07T12:42:19.470Z,99850.16
2023-02-07T12:44:59.097Z,99849.81
2023-02-07T12:47:53.561Z,99844.38
2023-02-07T12:50:44.998Z,99842.56
2023-02-07T12:53:38.181Z,99831.38
2023-02-07T12:56:28.589Z,99837.31
2023-02-07T12:59:17.098Z,99844.38
2023-02-07T13:02:05.559Z,99840.56
2023-02-07T13:05:31.937Z,99833.50
2023-02-07T13:08:17.837Z,99842.72
2023-02-07T13:11:02.648Z,99845.97
2023-02-07T13:13:49.318Z,99836.19
2023-02-07T13:16:32.540Z,99844.13
2023-02-07T13:19:19.963Z,99832.94
2023-02-07T13:22:00.036Z,99833.34
2023-02-07T13:24:36.608Z,99836.03
2023-02-07T13:27:17.666Z,99835.50
2023-02-07T13:29:52.388Z,99834.31
2023-02-07T13:32:28.530Z,99836.09
2023-02-07T13:35:07.552Z,99832.44
2023-02-07T13:37:51.616Z,99839.88
2023-02-07T13:40:35.658Z,99828.25
2023-02-07T13:43:17.352Z,99830.03
2023-02-07T13:45:59.224Z,99829.09
2023-02-07T13:48:42.111Z,99818.00
2023-02-07T13:51:24.365Z,99815.63
2023-02-07T13:54:09.775Z,99821.22
2023-02-07T13:57:16.056Z,99831.31
2023-02-07T14:00:18.690Z,99820.69
2023-02-07T14:02:54.526Z,99813.03
2023-02-07T14:05:31.987Z,99821.97
2023-02-07T14:08:24.792Z,99828.66
2023-02-07T14:10:59.025Z,99822.91
2023-02-07T14:13:35.096Z,99826.88
2023-02-07T14:16:11.922Z,99826.16
2023-02-07T14:18:51.274Z,99823.63
2023-02-07T14:21:42.677Z,99826.50
2023-02-07T14:24:33.150Z,99823.78
2023-02-07T14:27:29.437Z,99830.31
2023-02-07T14:30:28.610Z,99819.47
2023-02-07T14:33:15.644Z,99826.69
2023-02-07T14:36:21.453Z,99834.81
2023-02-07T14:39:31.191Z,99834.81
2023-02-07T14:42:14.026Z,99839.88
2023-02-07T14:44:49.892Z,99849.59
2023-02-07T14:47:27.361Z,99841.16
2023-02-07T14:50:02.116Z,99841.69
2023-02-07T14:52:39.870Z,99850.34
2023-02-07T14:55:19.598Z,99851.94
2023-02-07T14:57:58.639Z,99859.88
2023-02-07T15:00:36.722Z,99849.59
2023-02-07T15:03:14.947Z,99857.56
2023-02-07T15:05:53.669Z,99858.97
2023-02-07T15:08:30.321Z,99870.38
2023-02-07T15:11:07.424Z,99864.22
2023-02-07T15:13:45.286Z,99867.66
2023-02-07T15:16:21.221Z,99875.03
2023-02-07T15:18:57.971Z,99879.91
2023-02-07T15:21:35.500Z,99880.91
2023-02-07T15:24:16.792Z,99886.69
2023-02-07T15:26:55.871Z,99877.56
2023-02-07T15:29:32.119Z,99892.44
2023-02-07T15:32:22.171Z,99885.16
2023-02-07T15:34:56.308Z,99887.91
2023-02-07T15:37:29.546Z,99887.56
2023-02-07T15:40:02.777Z,99882.72
2023-02-07T15:42:37.235Z,99884.13
2023-02-07T15:45:29.753Z,99874.72
2023-02-07T15:48:07.728Z,99879.00
2023-02-07T15:50:41.493Z,99875.25
2023-02-07T15:53:23.679Z,99882.69
2023-02-07T15:55:57.145Z,99881.81
2023-02-07T15:58:36.106Z,99883.75
2023-02-07T16:01:17.825Z,99889.06
2023-02-07T16:03:51.967Z,99892.94
2023-02-07T16:06:27.540Z,99891.44
2023-02-07T16:09:03.050Z,99896.66
2023-02-07T16:11:41.326Z,99902.63
2023-02-07T16:14:25.743Z,99907.13
2023-02-07T16:17:00.038Z,99909.53
2023-02-07T16:19:34.111Z,99915.72
2023-02-07T16:22:13.320Z,99909.94
2023-02-07T16:24:49.526Z,99915.41
2023-02-07T16:27:30.210Z,99926.69
2023-02-07T16:30:05.650Z,99928.66
2023-02-07T16:32:38.712Z,99942.47
2023-02-07T16:35:23.518Z,99945.84
2023-02-07T16:37:56.791Z,99948.50
2023-02-07T16:40:30.283Z,99940.66
2023-02-07T16:43:06.735Z,99947.22
2023-02-07T16:45:41.493Z,99943.28
2023-02-07T16:48:16.243Z,99946.22
2023-02-07T16:50:49.281Z,99938.16
2023-02-07T16:53:22.328Z,99938.94
2023-02-07T16:55:57.296Z,99936.56
2023-02-07T16:58:33.126Z,99926.41
2023-02-07T17:01:07.948Z,99926.56
2023-02-07T17:03:41.412Z,99931.84
2023-02-07T17:06:15.969Z,99917.91
2023-02-07T17:08:51.051Z,99926.56
2023-02-07T17:11:26.479Z,99917.38
2023-02-07T17:14:00.381Z,99925.78
2023-02-07T17:16:34.901Z,99927.84
2023-02-07T17:19:13.317Z,99934.78
2023-02-07T17:21:46.987Z,99939.66
2023-02-07T17:24:20.410Z,99938.53
2023-02-07T17:26:55.104Z,99934.97
2023-02-07T17:29:28.230Z,99936.75
2023-02-07T17:32:02.770Z,99939.34
2023-02-07T17:34:35.830Z,99942.69
2023-02-07T17:37:16.501Z,99945.59
2023-02-07T17:39:54.615Z,99930.84
2023-02-07T17:42:27.836Z,99930.22
2023-02-07T17:45:00.890Z,99940.28
2023-02-07T17:47:35.501Z,99943.19
2023-02-07T17:50:11.355Z,99942.97
2023-02-07T17:52:44.594Z,99938.28
2023-02-07T17:55:18.708Z,99938.31
2023-02-07T17:57:52.271Z,99935.19
2023-02-07T18:00:31.190Z,99934.50
2023-02-07T18:03:12.502Z,99934.25
2023-02-07T18:05:45.600Z,99936.09
2023-02-07T18:08:19.035Z,99933.78
2023-02-07T18:10:52.551Z,99936.50
2023-02-07T18:13:25.897Z,99940.63
2023-02-07T18:15:59.215Z,99947.06
2023-02-07T18:18:33.656Z,99950.19
2023-02-07T18:21:07.183Z,99939.53
2023-02-07T18:23:40.363Z,99940.81
2023-02-07T18:26:15.527Z,99943.03
2023-02-07T18:28:48.970Z,99931.88
2023-02-07T18:31:25.153Z,99939.91
2023-02-07T18:33:59.604Z,99944.72
2023-02-07T18:36:40.048Z,99939.91
2023-02-07T18:39:14.463Z,99936.69
2023-02-07T18:41:47.681Z,99940.69
2023-02-07T18:44:20.845Z,99938.91
2023-02-07T18:46:54.275Z,99932.22
2023-02-07T18:49:28.974Z,99936.97
2023-02-07T18:52:02.569Z,99933.78
2023-02-07T18:54:36.295Z,99942.50
2023-02-07T18:57:09.589Z,99941.78
2023-02-07T18:59:42.815Z,99942.25
2023-02-07T19:02:15.861Z,99937.41
2023-02-07T19:04:50.638Z,99938.94
2023-02-07T19:07:23.710Z,99941.28
2023-02-07T19:09:56.775Z,99938.91
2023-02-07T19:12:29.949Z,99936.06
2023-02-07T19:15:03.003Z,99942.84
2023-02-07T19:17:36.913Z,99949.56
2023-02-07T19:20:12.701Z,99948.47
2023-02-07T19:22:46.788Z,99951.66
2023-02-07T19:25:19.896Z,99944.84
2023-02-07T19:27:52.921Z,99942.19
2023-02-07T19:30:26.306Z,99947.13
2023-02-07T19:32:59.475Z,99947.00
2023-02-07T19:35:35.774Z,99944.84
2023-02-07T19:38:09.138Z,99939.16
2023-02-07T19:40:42.447Z,99942.78
2023-02-07T19:43:15.794Z,99939.97
2023-02-07T19:45:49.864Z,99941.38
2023-02-07T19:48:23.900Z,99936.91
2023-02-07T19:51:02.909Z,99935.78
2023-02-07T19:53:36.947Z,99928.63
2023-02-07T19:56:11.267Z,99938.94
2023-02-07T19:58:47.652Z,99937.84
2023-02-07T20:01:22.170Z,99932.56
2023-02-07T20:03:56.909Z,99937.59
2023-02-07T20:06:34.152Z,99935.56
2023-02-07T20:09:09.624Z,99916.88
2023-02-07T20:11:42.656Z,99926.09
2023-02-07T20:14:15.751Z,99921.22
2023-02-07T20:16:49.323Z,99922.13
2023-02-07T20:19:22.361Z,99927.13
2023-02-07T20:21:57.135Z,99925.13
2023-02-07T20:24:30.397Z,99923.31
2023-02-07T20:27:03.660Z,99926.91
2023-02-07T20:29:36.731Z,99933.28
2023-02-07T20:32:12.741Z,99926.50
2023-02-07T20:34:46.048Z,99928.34
2023-02-07T20:37:20.505Z,99931.09
2023-02-07T20:39:53.563Z,99937.94
2023-02-07T20:42:26.643Z,99933.91
2023-02-07T20:45:00.056Z,99937.78
2023-02-07T20:47:33.125Z,99934.88
2023-02-07T20:50:07.972Z,99935.34
2023-02-07T20:52:42.336Z,99940.44
2023-02-07T20:55:15.747Z,99935.00
2023-02-07T20:57:49.368Z,99931.34
2023-02-07T21:00:22.666Z,99934.22
2023-02-07T21:02:55.718Z,99941.09
2023-02-07T21:05:28.734Z,99946.09
2023-02-07T21:08:03.532Z,99945.69
2023-02-07T21:10:37.146Z,99946.69
2023-02-07T21:13:10.228Z,99950.34
2023-02-07T21:15:49.832Z,99942.31
2023-02-07T21:18:28.605Z,99950.06
2023-02-07T21:21:03.519Z,99950.34
2023-02-07T21:23:38.657Z,99953.31
2023-02-07T21:26:14.906Z,99952.91
2023-02-07T21:28:48.703Z,99954.66
2023-02-07T21:31:23.214Z,99958.09
2023-02-07T21:33:57.173Z,99957.69
2023-02-07T21:36:32.499Z,99952.47
2023-02-07T21:39:12.027Z,99953.75
2023-02-07T21:41:46.859Z,99961.69
2023-02-07T21:44:21.282Z,99959.38
2023-02-07T21:46:54.360Z,99974.63
2023-02-07T21:49:27.488Z,99973.13
2023-02-07T21:52:00.955Z,99968.44
2023-02-07T21:54:35.708Z,99969.00
2023-02-07T21:57:08.745Z,99971.31
2023-02-07T21:59:42.525Z,99965.03
2023-02-07T22:02:15.820Z,99974.09
2023-02-07T22:04:48.834Z,99969.59
2023-02-07T22:07:21.863Z,99969.25
2023-02-07T22:09:56.310Z,99965.78
2023-02-07T22:12:29.424Z,99963.44
2023-02-07T22:15:02.533Z,99969.00
2023-02-07T22:17:35.620Z,99962.50
2023-02-07T22:20:10.391Z,99964.16
2023-02-07T22:22:43.477Z,99960.66
2023-02-07T22:25:18.263Z,99963.47
2023-02-07T22:27:51.628Z,99957.63
2023-02-07T22:30:25.110Z,99954.13
2023-02-07T22:32:58.222Z,99956.88
2023-02-07T22:35:31.266Z,99955.56
2023-02-07T22:38:04.883Z,99946.06
2023-02-07T22:40:41.280Z,99944.94
2023-02-07T22:43:17.182Z,99943.59
2023-02-07T22:45:50.377Z,99948.66
2023-02-07T22:48:23.396Z,99947.81
2023-02-07T22:50:56.403Z,99936.66
2023-02-07T22:53:29.417Z,99937.09
2023-02-07T22:56:03.980Z,99941.84
2023-02-07T22:58:37.948Z,99940.28
2023-02-07T23:01:21.789Z,99943.03
2023-02-07T23:03:55.572Z,99940.31
2023-02-07T23:06:28.940Z,99944.88
2023-02-07T23:09:02.500Z,99946.25
2023-02-07T23:11:37.875Z,99942.19
2023-02-07T23:14:10.969Z,99938.59
2023-02-07T23:16:44.602Z,99944.94
2023-02-07T23:19:19.090Z,99945.41
2023-02-07T23:21:52.133Z,99945.66
2023-02-07T23:24:25.191Z,99950.88
2023-02-07T23:26:59.931Z,99950.88
2023-02-07T23:29:32.975Z,99951.56
2023-02-07T23:32:06.381Z,99946.59
2023-02-07T23:34:39.445Z,99942.28
2023-02-07T23:37:12.596Z,99939.56
2023-02-07T23:39:45.622Z,99938.91
2023-02-07T23:42:20.088Z,99939.59
2023-02-07T23:44:53.387Z,99938.72
2023-02-07T23:47:26.598Z,99926.91
2023-02-07T23:49:59.717Z,99933.97
2023-02-07T23:52:32.803Z,99923.53
2023-02-07T23:55:07.217Z,99930.84
2023-02-07T23:57:41.846Z,99927.03
